Time;durP1;ratioP1;P1;durP2;ratioP2;P2;SDS_P1;SDS_P2;PMS_P1;PMS_P2;Temp;Humidity;BMP_temperature;BMP_pressure;BME280_temperature;BME280_humidity;BME280_pressure;Samples;Min_cycle;Max_cycle;Signal;HPM_P1;HPM_P2
2021/10/11 00:03:33;;;;;;;81.20;40.30;;;;;;;3.04;70.66;99458.09;235682;1200;22455;-73
2021/10/11 00:08:37;;;;;;;82.10;39.00;;;;;;;3.04;70.85;99448.77;235451;1200;24013;-74
2021/10/11 00:13:40;;;;;;;87.50;42.90;;;;;;;2.95;70.79;99448.46;235699;1198;25203;-71
2021/10/11 00:18:52;;;;;;;102.30;43.60;;;;;;;2.82;71.05;99452.11;235520;1200;23998;-73
2021/10/11 00:23:55;;;;;;;95.40;45.10;;;;;;;2.73;71.30;99450.86;235034;1201;22421;-72
2021/10/11 00:29:01;;;;;;;92.70;43.20;;;;;;;2.73;71.60;99451.67;235221;1201;25109;-73
2021/10/11 00:34:09;;;;;;;113.60;53.50;;;;;;;2.66;71.60;99452.04;234942;1193;24282;-72
2021/10/11 00:39:12;;;;;;;150.10;66.80;;;;;;;2.50;71.47;99466.61;234900;1195;24000;-74
2021/10/11 00:44:14;;;;;;;140.70;65.10;;;;;;;2.34;71.58;99467.83;234975;1197;24020;-72
2021/10/11 00:49:17;;;;;;;144.30;67.30;;;;;;;2.18;72.00;99458.19;235203;1193;22430;-72
2021/10/11 00:54:21;;;;;;;147.80;70.60;;;;;;;2.17;72.48;99448.38;235140;1200;24014;-74
2021/10/11 00:59:30;;;;;;;144.00;65.50;;;;;;;2.15;72.57;99429.13;235360;1193;22431;-74
2021/10/11 01:04:36;;;;;;;138.90;63.40;;;;;;;2.12;72.90;99427.44;235365;1199;24060;-72
2021/10/11 01:09:39;;;;;;;131.60;62.10;;;;;;;2.14;72.84;99428.05;235699;1199;24020;-73
2021/10/11 01:14:41;;;;;;;152.00;64.80;;;;;;;2.13;73.04;99422.15;235426;1193;25044;-74
2021/10/11 01:19:48;;;;;;;139.80;65.80;;;;;;;2.14;73.29;99415.84;235372;1199;24092;-72
2021/10/11 01:24:50;;;;;;;137.00;64.40;;;;;;;2.12;73.21;99409.91;235355;1199;24586;-71
2021/10/11 01:29:57;;;;;;;137.00;65.10;;;;;;;2.10;73.28;99398.47;235135;1193;22395;-74
2021/10/11 01:35:00;;;;;;;125.70;58.90;;;;;;;2.08;73.34;99389.96;235312;1200;24093;-74
2021/10/11 01:40:05;;;;;;;135.10;61.20;;;;;;;1.99;73.33;99388.20;235052;1200;25203;-71
2021/10/11 01:45:10;;;;;;;122.80;62.60;;;;;;;1.89;73.45;99389.42;235238;1200;24847;-72
2021/10/11 01:50:12;;;;;;;140.70;66.00;;;;;;;1.82;73.81;99385.94;235364;1200;22519;-72
2021/10/11 01:55:15;;;;;;;141.90;65.00;;;;;;;1.77;73.91;99379.27;235336;1193;24055;-70
2021/10/11 02:00:22;;;;;;;137.60;62.20;;;;;;;1.76;74.21;99369.85;235834;1199;24034;-74
2021/10/11 02:05:45;;;;;;;127.90;57.00;;;;;;;1.78;74.19;99361.34;235906;1193;22449;-72
2021/10/11 02:10:48;;;;;;;109.10;50.30;;;;;;;1.75;74.22;99361.98;235755;1199;24012;-74
2021/10/11 02:15:51;;;;;;;98.00;47.80;;;;;;;1.74;74.45;99355.40;235564;1198;24160;-72
2021/10/11 02:21:08;;;;;;;112.80;53.10;;;;;;;1.67;74.27;99364.02;235634;1193;23993;-71
2021/10/11 02:26:11;;;;;;;112.30;52.10;;;;;;;1.59;74.21;99358.57;235702;1193;24094;-72
2021/10/11 02:31:13;;;;;;;109.00;52.00;;;;;;;1.50;74.36;99348.48;235180;1196;22459;-73
2021/10/11 02:36:16;;;;;;;103.80;49.50;;;;;;;1.47;74.57;99345.26;235170;1200;23005;-71
2021/10/11 02:41:19;;;;;;;103.70;50.80;;;;;;;1.42;74.41;99343.63;235166;1200;24667;-71
2021/10/11 02:46:21;;;;;;;101.30;49.70;;;;;;;1.34;74.54;99345.79;235540;1200;24046;-74
2021/10/11 02:51:24;;;;;;;112.10;52.70;;;;;;;1.27;74.69;99344.86;235108;1200;24048;-72
2021/10/11 02:56:27;;;;;;;113.40;51.30;;;;;;;1.19;74.81;99337.52;235831;1199;25277;-72
2021/10/11 03:01:30;;;;;;;99.50;50.50;;;;;;;1.16;74.95;99333.84;235677;1199;22529;-74
2021/10/11 03:06:33;;;;;;;103.00;47.90;;;;;;;1.15;75.06;99334.13;235725;1199;24123;-74
2021/10/11 03:11:36;;;;;;;114.40;51.70;;;;;;;1.13;75.14;99333.90;235713;1199;25288;-72
2021/10/11 03:16:43;;;;;;;99.70;49.70;;;;;;;1.13;75.28;99327.89;236070;1199;22468;-74
2021/10/11 03:21:46;;;;;;;91.90;46.90;;;;;;;1.21;75.80;99324.92;235888;1199;24050;-73
2021/10/11 03:27:01;;;;;;;104.40;48.70;;;;;;;1.28;76.00;99322.71;235839;1193;25218;-71
2021/10/11 03:32:13;;;;;;;99.90;48.20;;;;;;;1.35;76.22;99326.86;234935;1197;25234;-72
2021/10/11 03:37:17;;;;;;;96.60;47.10;;;;;;;1.38;75.91;99324.33;234871;1200;22441;-72
2021/10/11 03:42:20;;;;;;;94.80;47.50;;;;;;;1.30;75.74;99317.84;235116;1201;23052;-72
2021/10/11 03:47:23;;;;;;;96.00;47.10;;;;;;;1.27;75.79;99311.13;235160;1201;24133;-74
2021/10/11 03:52:27;;;;;;;100.70;49.20;;;;;;;1.29;75.89;99307.36;235049;1195;25101;-74
2021/10/11 03:57:38;;;;;;;99.90;47.50;;;;;;;1.31;76.06;99303.77;235181;1200;24028;-74
2021/10/11 04:02:44;;;;;;;106.30;48.70;;;;;;;1.26;76.00;99308.89;235544;1200;25236;-72
2021/10/11 04:07:50;;;;;;;100.30;47.40;;;;;;;1.21;75.76;99307.83;235463;1193;24145;-74
2021/10/11 04:12:57;;;;;;;108.80;49.30;;;;;;;1.17;76.00;99296.20;235453;1200;22523;-74
2021/10/11 04:18:00;;;;;;;114.70;53.60;;;;;;;1.20;76.46;99289.52;235490;1198;25207;-73
2021/10/11 04:23:04;;;;;;;118.00;54.10;;;;;;;1.15;76.25;99292.77;235365;1200;25130;-74
2021/10/11 04:28:09;;;;;;;95.20;47.50;;;;;;;1.11;76.35;99289.55;235636;1186;24272;-74
2021/10/11 04:33:14;;;;;;;116.60;53.40;;;;;;;1.06;76.35;99294.56;235319;1193;24001;-74
2021/10/11 04:38:16;;;;;;;118.80;52.20;;;;;;;0.99;76.23;99281.95;235378;1200;22593;-72
2021/10/11 04:43:19;;;;;;;133.80;60.80;;;;;;;0.89;76.15;99284.89;235429;1200;25204;-71
2021/10/11 04:48:21;;;;;;;126.90;60.40;;;;;;;0.77;76.15;99278.26;235437;1194;24152;-72
2021/10/11 04:53:24;;;;;;;113.40;57.00;;;;;;;0.69;76.03;99281.76;235190;1200;22550;-74
2021/10/11 04:58:27;;;;;;;113.10;52.60;;;;;;;0.57;76.19;99278.69;235332;1193;24248;-74
2021/10/11 05:03:29;;;;;;;115.10;52.00;;;;;;;0.44;76.26;99281.79;235659;1193;23147;-74
2021/10/11 05:08:32;;;;;;;111.40;52.10;;;;;;;0.30;76.68;99287.15;235296;1195;22423;-73
2021/10/11 05:13:34;;;;;;;102.90;50.30;;;;;;;0.28;76.97;99292.27;235644;1193;22431;-74
2021/10/11 05:18:37;;;;;;;97.80;46.10;;;;;;;0.29;77.12;99298.71;235470;1200;24081;-74
2021/10/11 05:23:48;;;;;;;100.90;48.50;;;;;;;0.36;77.31;99294.95;235803;1200;22446;-75
2021/10/11 05:29:11;;;;;;;83.90;41.50;;;;;;;0.48;77.79;99300.19;235124;1194;22568;-72
2021/10/11 05:34:14;;;;;;;96.50;47.00;;;;;;;0.54;77.84;99297.64;235536;1200;25279;-74
2021/10/11 05:39:18;;;;;;;89.40;46.70;;;;;;;0.63;77.78;99292.21;235351;1193;22579;-74
2021/10/11 05:44:33;;;;;;;90.50;45.50;;;;;;;0.70;77.56;99295.51;235338;1200;24022;-72
2021/10/11 05:49:35;;;;;;;90.00;45.50;;;;;;;0.70;77.59;99291.61;236375;1200;24015;-73
2021/10/11 05:54:38;;;;;;;107.50;54.00;;;;;;;0.74;77.67;99291.70;236017;1193;22433;-72
2021/10/11 05:59:41;;;;;;;111.10;53.30;;;;;;;0.89;78.02;99276.33;235993;1199;22713;-74
2021/10/11 06:04:44;;;;;;;115.30;55.70;;;;;;;1.09;78.22;99279.73;236037;1193;24055;-76
2021/10/11 06:09:47;;;;;;;133.20;66.90;;;;;;;1.33;77.95;99289.50;236427;1185;22396;-75
2021/10/11 06:14:52;;;;;;;120.10;60.40;;;;;;;1.52;77.94;99275.86;235843;1193;22576;-75
2021/10/11 06:20:02;;;;;;;119.10;61.60;;;;;;;1.68;77.83;99279.01;235927;1192;22440;-73
2021/10/11 06:25:18;;;;;;;104.80;53.80;;;;;;;1.86;78.03;99280.18;235993;1193;24044;-72
2021/10/11 06:30:21;;;;;;;118.30;59.20;;;;;;;2.09;78.10;99279.17;238735;1199;22523;-73
2021/10/11 06:35:23;;;;;;;115.30;59.10;;;;;;;2.30;78.01;99281.16;236310;1199;23044;-75
2021/10/11 06:40:25;;;;;;;125.60;61.60;;;;;;;2.50;77.54;99280.29;235210;1194;25335;-74
2021/10/11 06:45:33;;;;;;;105.60;55.60;;;;;;;2.71;77.46;99279.05;236946;1187;22438;-74
2021/10/11 06:50:36;;;;;;;117.20;59.60;;;;;;;2.90;77.31;99288.48;235796;1194;22434;-74
2021/10/11 06:55:40;;;;;;;111.00;55.30;;;;;;;3.09;77.52;99291.45;236080;1193;25037;-74
2021/10/11 07:00:42;;;;;;;106.90;55.40;;;;;;;3.38;77.54;99284.46;235967;1200;22449;-74
2021/10/11 07:05:45;;;;;;;94.60;51.90;;;;;;;3.66;77.41;99282.52;235737;1199;22441;-72
2021/10/11 07:10:48;;;;;;;92.50;50.80;;;;;;;3.85;77.05;99284.28;235691;1193;24094;-72
2021/10/11 07:15:52;;;;;;;86.60;46.90;;;;;;;4.00;76.81;99281.64;235526;1185;24051;-71
2021/10/11 07:20:55;;;;;;;90.10;48.40;;;;;;;4.15;76.59;99277.16;235906;1196;24034;-73
2021/10/11 07:26:00;;;;;;;87.70;46.80;;;;;;;4.37;76.61;99277.03;236028;1192;24270;-72
2021/10/11 07:31:17;;;;;;;75.30;43.00;;;;;;;4.56;76.70;99270.92;235494;1195;22397;-74
2021/10/11 07:36:20;;;;;;;80.00;37.60;;;;;;;4.78;76.56;99274.25;235991;1193;25086;-73
2021/10/11 07:41:22;;;;;;;62.30;35.50;;;;;;;5.02;76.39;99260.65;235850;1193;24110;-74
2021/10/11 07:46:25;;;;;;;75.40;38.20;;;;;;;5.31;76.28;99259.52;236003;1194;22523;-73
2021/10/11 07:51:28;;;;;;;63.00;37.40;;;;;;;5.60;76.05;99260.08;236027;1194;22452;-74
2021/10/11 07:56:41;;;;;;;65.00;38.00;;;;;;;5.86;75.71;99252.44;235966;1199;22538;-74
2021/10/11 08:01:57;;;;;;;58.90;33.80;;;;;;;6.17;75.53;99249.40;235710;1193;24019;-73
2021/10/11 08:07:00;;;;;;;57.90;33.10;;;;;;;6.37;74.54;99245.33;236099;1193;24046;-74
2021/10/11 08:12:03;;;;;;;54.80;32.30;;;;;;;6.68;75.01;99241.44;235769;1199;22570;-75
2021/10/11 08:17:06;;;;;;;49.00;29.90;;;;;;;7.01;74.84;99238.88;234947;1199;22439;-71
2021/10/11 08:22:10;;;;;;;45.90;28.30;;;;;;;7.31;74.06;99232.94;235033;1202;24311;-72
2021/10/11 08:27:16;;;;;;;47.50;27.50;;;;;;;7.56;73.48;99226.33;235869;1200;22460;-73
2021/10/11 08:32:25;;;;;;;46.70;25.30;;;;;;;7.82;72.82;99223.06;235326;1195;22452;-76
2021/10/11 08:37:29;;;;;;;44.70;27.60;;;;;;;8.00;71.69;99229.18;235039;1194;26269;-75
2021/10/11 08:42:34;;;;;;;46.90;27.10;;;;;;;8.11;70.83;99231.05;235290;1201;22481;-75
2021/10/11 08:47:37;;;;;;;36.30;22.60;;;;;;;8.26;70.71;99228.60;235150;1180;22538;-74
2021/10/11 08:52:49;;;;;;;35.00;19.10;;;;;;;8.52;70.41;99221.70;235209;1194;22454;-74
2021/10/11 08:58:00;;;;;;;30.90;17.80;;;;;;;8.76;69.15;99216.20;235401;1194;22434;-72
2021/10/11 09:03:04;;;;;;;28.30;17.10;;;;;;;8.99;68.47;99208.79;235106;1200;22472;-75
2021/10/11 09:08:08;;;;;;;26.70;16.20;;;;;;;9.21;68.04;99204.56;235641;1196;22428;-73
2021/10/11 09:13:12;;;;;;;26.50;16.40;;;;;;;9.37;67.05;99199.95;235720;1193;22442;-73
2021/10/11 09:18:30;;;;;;;26.40;16.70;;;;;;;9.55;66.44;99197.67;235959;1193;24045;-73
2021/10/11 09:23:33;;;;;;;25.60;13.50;;;;;;;9.69;65.68;99201.05;235574;1195;22375;-75
2021/10/11 09:28:35;;;;;;;24.30;14.00;;;;;;;9.85;64.73;99202.94;235444;1194;22468;-73
2021/10/11 09:33:43;;;;;;;21.70;13.10;;;;;;;9.98;64.11;99197.70;235394;1195;27505;-74
2021/10/11 09:38:57;;;;;;;23.00;14.30;;;;;;;10.12;63.28;99197.70;235188;1202;22554;-74
2021/10/11 09:44:10;;;;;;;19.50;12.50;;;;;;;10.31;62.99;99194.24;235202;1195;22476;-74
2021/10/11 09:49:14;;;;;;;20.30;13.40;;;;;;;10.51;62.47;99188.91;235141;1194;22510;-75
2021/10/11 09:54:17;;;;;;;20.80;13.20;;;;;;;10.69;62.14;99187.55;236082;1195;22550;-73
2021/10/11 09:59:20;;;;;;;21.00;12.80;;;;;;;10.86;61.70;99186.58;235575;1193;22450;-74
2021/10/11 10:04:37;;;;;;;21.20;13.10;;;;;;;10.97;60.78;99184.23;236409;1200;25761;-74
2021/10/11 10:09:48;;;;;;;15.40;11.40;;;;;;;11.11;60.36;99179.45;235388;1197;22476;-74
2021/10/11 10:15:09;;;;;;;18.00;12.50;;;;;;;11.19;59.19;99178.10;235398;1194;24192;-75
2021/10/11 10:20:19;;;;;;;20.60;11.90;;;;;;;11.31;59.35;99174.23;235320;1202;22460;-73
2021/10/11 10:25:22;;;;;;;17.20;10.70;;;;;;;11.43;58.58;99168.05;235251;1195;22381;-74
2021/10/11 10:30:35;;;;;;;16.20;9.90;;;;;;;11.51;57.55;99164.85;235132;1201;24591;-72
2021/10/11 10:35:57;;;;;;;15.70;9.20;;;;;;;11.55;56.91;99157.89;235204;1193;22451;-72
2021/10/11 10:41:20;;;;;;;15.50;10.70;;;;;;;11.63;56.53;99152.23;235456;1187;24054;-71
2021/10/11 10:46:23;;;;;;;16.30;10.10;;;;;;;11.71;56.62;99152.98;235417;1181;24100;-73
2021/10/11 10:51:26;;;;;;;15.00;9.50;;;;;;;11.83;55.83;99149.30;234936;1201;22868;-74
2021/10/11 10:56:28;;;;;;;16.90;8.90;;;;;;;11.92;54.55;99146.73;235155;1187;24203;-72
2021/10/11 11:01:31;;;;;;;13.50;9.00;;;;;;;11.99;54.57;99138.17;235054;1200;22428;-73
2021/10/11 11:06:45;;;;;;;15.90;9.60;;;;;;;12.08;54.25;99134.23;235359;1196;24091;-75
2021/10/11 11:11:48;;;;;;;16.80;9.80;;;;;;;12.17;53.72;99124.91;235422;1180;22555;-74
2021/10/11 11:16:58;;;;;;;19.90;11.80;;;;;;;12.22;53.54;99115.86;235359;1196;27349;-74
2021/10/11 11:22:18;;;;;;;15.60;10.10;;;;;;;12.31;53.24;99115.73;235078;1197;24679;-74
2021/10/11 11:27:36;;;;;;;18.80;12.10;;;;;;;12.44;52.95;99114.89;235099;1200;24169;-75
2021/10/11 11:32:56;;;;;;;14.60;10.10;;;;;;;12.58;52.81;99113.70;235251;1202;22471;-74
2021/10/11 11:38:22;;;;;;;16.10;10.30;;;;;;;12.74;52.72;99113.98;235416;1200;23994;-73
2021/10/11 11:43:28;;;;;;;17.90;10.90;;;;;;;12.86;51.65;99112.02;235350;1201;22418;-75
2021/10/11 11:48:36;;;;;;;17.30;11.70;;;;;;;12.95;51.37;99106.49;235124;1196;23492;-72
2021/10/11 11:53:40;;;;;;;15.30;10.40;;;;;;;13.05;51.10;99108.30;235223;1201;25002;-75
2021/10/11 11:58:43;;;;;;;15.80;9.80;;;;;;;13.19;50.42;99097.33;235337;1193;25346;-72
2021/10/11 12:04:08;;;;;;;13.60;9.90;;;;;;;13.34;50.11;99083.03;235426;1186;22530;-72
2021/10/11 12:09:32;;;;;;;15.20;10.30;;;;;;;13.59;49.52;99078.58;235329;1201;24639;-72
2021/10/11 12:14:36;;;;;;;13.30;10.00;;;;;;;13.83;49.06;99074.84;235444;1201;26164;-72
2021/10/11 12:19:39;;;;;;;13.60;8.90;;;;;;;14.05;49.00;99070.01;235346;1201;23733;-72
2021/10/11 12:24:41;;;;;;;15.90;8.90;;;;;;;14.23;48.31;99063.98;235096;1201;22462;-71
2021/10/11 12:29:48;;;;;;;184.30;139.30;;;;;;;14.33;47.83;99042.30;235100;1201;25266;-73
2021/10/11 12:34:52;;;;;;;16.90;12.20;;;;;;;14.36;46.88;99035.23;235522;1193;24051;-73
2021/10/11 12:39:55;;;;;;;12.00;8.50;;;;;;;14.42;46.81;99031.77;235378;1197;25120;-72
2021/10/11 12:45:00;;;;;;;13.20;8.00;;;;;;;14.57;46.75;99036.00;235177;1196;24065;-73
2021/10/11 12:50:10;;;;;;;11.90;7.70;;;;;;;14.64;46.35;99034.98;235284;1195;22472;-72
2021/10/11 12:55:14;;;;;;;13.20;7.90;;;;;;;14.62;46.01;99038.86;235401;1197;22459;-73
2021/10/11 13:00:19;;;;;;;10.00;6.80;;;;;;;14.48;45.79;99029.05;234940;1202;22445;-70
2021/10/11 13:05:22;;;;;;;13.40;8.10;;;;;;;14.31;45.84;99024.50;235338;1201;22487;-70
2021/10/11 13:10:24;;;;;;;11.90;7.90;;;;;;;14.19;46.07;99022.91;235043;1196;22435;-72
2021/10/11 13:15:31;;;;;;;13.20;7.80;;;;;;;14.06;46.05;99015.84;234821;1202;23335;-71
2021/10/11 13:20:35;;;;;;;12.20;8.20;;;;;;;13.93;45.95;99011.07;235054;1195;24064;-70
2021/10/11 13:25:38;;;;;;;11.00;7.40;;;;;;;13.86;46.06;99009.88;235108;1201;26124;-73
2021/10/11 14:31:08;;;;;;;14.50;10.10;;;;;;;13.07;48.19;98985.02;235403;1200;24081;-70
2021/10/11 15:57:40;;;;;;;23.60;13.50;;;;;;;10.86;54.50;98963.55;234649;1202;24109;-70
2021/10/11 16:02:36;;;;;;;22.20;13.20;;;;;;;10.67;54.75;98964.44;234754;1196;25319;-70
2021/10/11 16:07:49;;;;;;;23.00;14.60;;;;;;;10.50;54.97;98961.09;235017;1187;22599;-70
2021/10/11 16:12:54;;;;;;;25.70;16.00;;;;;;;10.34;55.46;98957.46;234741;1202;24100;-71
2021/10/11 16:18:05;;;;;;;28.70;16.60;;;;;;;10.20;56.07;98966.08;234813;1202;24110;-71
2021/10/11 16:23:08;;;;;;;28.20;18.60;;;;;;;10.10;56.57;98961.61;234588;1201;22917;-70
2021/10/11 16:28:18;;;;;;;31.90;20.20;;;;;;;10.05;57.30;98958.55;234778;1200;25199;-71
2021/10/11 16:33:42;;;;;;;34.90;19.80;;;;;;;10.04;57.83;98960.70;234632;1202;22468;-71
2021/10/11 16:38:46;;;;;;;36.90;20.40;;;;;;;10.03;58.23;98957.06;234881;1201;22568;-72
2021/10/11 16:43:50;;;;;;;31.40;19.90;;;;;;;9.97;58.48;98954.33;235283;1193;24043;-71
2021/10/11 16:48:53;;;;;;;32.90;21.10;;;;;;;9.89;58.71;98958.08;235116;1200;24050;-69
2021/10/11 16:59:03;;;;;;;33.80;21.10;;;;;;;9.73;59.64;98963.11;234694;1195;22445;-71
2021/10/11 17:04:08;;;;;;;36.20;22.30;;;;;;;9.71;60.18;98966.45;234817;1202;22558;-72
2021/10/11 17:09:11;;;;;;;37.90;24.20;;;;;;;9.72;60.56;98967.89;234665;1201;24095;-71
2021/10/11 17:14:26;;;;;;;45.30;28.50;;;;;;;9.71;60.88;98966.39;234598;1196;24208;-71
2021/10/11 17:19:49;;;;;;;42.40;26.20;;;;;;;9.65;60.91;98968.26;234637;1202;22584;-72
2021/10/11 17:24:52;;;;;;;48.40;28.30;;;;;;;9.57;61.40;98972.16;234566;1202;25621;-70
2021/10/11 17:29:55;;;;;;;43.30;25.50;;;;;;;9.47;61.76;98969.41;234879;1201;22565;-71
2021/10/11 17:34:57;;;;;;;66.80;33.00;;;;;;;9.39;62.06;98970.48;234617;1201;22665;-72
2021/10/11 17:40:00;;;;;;;71.10;40.00;;;;;;;9.30;62.36;98965.98;235240;1186;24094;-69
2021/10/11 17:45:06;;;;;;;57.80;34.20;;;;;;;9.23;62.81;98967.67;235149;1200;24056;-72
2021/10/11 17:50:12;;;;;;;67.90;37.20;;;;;;;9.17;63.20;98961.77;235028;1200;22458;-69
2021/10/11 17:55:34;;;;;;;63.30;34.60;;;;;;;9.09;63.30;98958.86;234687;1197;22522;-69
2021/10/11 18:00:36;;;;;;;73.50;39.40;;;;;;;9.01;63.69;98959.43;234209;1196;24042;-72
2021/10/11 18:05:39;;;;;;;66.30;36.30;;;;;;;8.91;64.10;98960.90;234903;1201;24171;-69
2021/10/11 18:10:42;;;;;;;71.60;40.30;;;;;;;8.74;64.37;98956.62;234690;1197;24052;-71
2021/10/11 18:15:45;;;;;;;75.00;39.20;;;;;;;8.66;64.78;98958.84;234697;1202;24256;-70
2021/10/11 18:20:49;;;;;;;72.50;37.70;;;;;;;8.60;65.31;98963.06;234695;1197;24589;-71
2021/10/11 18:25:59;;;;;;;85.50;39.80;;;;;;;8.51;65.44;98962.23;234848;1194;22589;-71
2021/10/11 18:31:06;;;;;;;78.50;43.50;;;;;;;8.44;65.92;98960.73;235136;1200;25058;-71
2021/10/11 18:36:09;;;;;;;87.60;46.60;;;;;;;8.40;66.31;98959.38;235186;1200;24082;-69
2021/10/11 18:41:13;;;;;;;80.00;44.10;;;;;;;8.30;66.30;98955.13;234788;1193;24050;-70
2021/10/11 18:46:17;;;;;;;74.80;41.20;;;;;;;8.16;66.53;98954.98;234931;1202;22457;-69
2021/10/11 18:51:21;;;;;;;72.60;41.10;;;;;;;7.99;67.16;98950.88;234554;1202;26329;-72
2021/10/11 18:56:24;;;;;;;69.50;38.40;;;;;;;7.83;67.62;98947.87;234666;1197;24081;-71
2021/10/11 19:01:26;;;;;;;86.60;48.10;;;;;;;7.72;68.25;98946.00;234818;1202;22452;-71
2021/10/11 19:06:36;;;;;;;86.90;45.50;;;;;;;7.67;68.81;98941.03;234998;1187;24058;-71
2021/10/11 19:11:41;;;;;;;72.90;39.80;;;;;;;7.66;69.27;98946.68;235041;1195;22448;-72
2021/10/11 19:16:45;;;;;;;71.70;38.90;;;;;;;7.70;69.49;98942.25;235025;1202;22549;-69
2021/10/11 19:21:49;;;;;;;73.50;39.30;;;;;;;7.76;69.69;98939.92;234813;1201;22457;-72
2021/10/11 19:26:51;;;;;;;68.60;39.50;;;;;;;7.80;69.71;98937.10;234907;1201;24207;-70
2021/10/11 19:31:53;;;;;;;69.70;37.50;;;;;;;7.84;69.90;98943.45;235252;1193;24056;-72
2021/10/11 19:37:00;;;;;;;73.60;40.70;;;;;;;7.90;69.65;98944.95;235237;1200;25071;-71
2021/10/11 19:42:03;;;;;;;73.40;41.50;;;;;;;7.97;69.77;98945.58;235311;1200;23116;-72
2021/10/11 19:47:05;;;;;;;77.10;43.50;;;;;;;8.02;69.75;98946.86;235291;1196;26326;-71
2021/10/11 19:52:08;;;;;;;69.80;39.00;;;;;;;8.08;69.90;98943.13;234929;1180;25057;-72
2021/10/11 19:57:11;;;;;;;68.10;36.80;;;;;;;8.08;69.87;98945.48;234899;1197;24043;-71
2021/10/11 20:02:14;;;;;;;60.10;31.00;;;;;;;8.08;69.82;98938.23;234810;1202;24219;-71
2021/10/11 20:07:17;;;;;;;53.00;31.00;;;;;;;8.10;69.75;98936.73;234818;1178;24203;-69
2021/10/11 20:12:21;;;;;;;48.40;28.60;;;;;;;8.13;69.82;98929.66;234710;1202;22452;-69
2021/10/11 20:17:42;;;;;;;49.30;29.60;;;;;;;8.15;69.89;98919.70;234557;1202;24030;-69
2021/10/11 20:22:44;;;;;;;49.30;27.40;;;;;;;8.16;69.94;98917.02;234663;1201;22429;-70
2021/10/11 20:27:47;;;;;;;48.40;26.50;;;;;;;8.18;69.93;98916.02;234862;1197;24127;-71
2021/10/11 20:32:49;;;;;;;51.30;27.00;;;;;;;8.19;70.01;98912.39;235255;1193;24037;-71
2021/10/11 20:37:51;;;;;;;47.60;27.40;;;;;;;8.14;70.09;98905.35;235044;1193;24220;-69
2021/10/11 20:42:53;;;;;;;42.50;26.20;;;;;;;8.11;70.26;98905.57;234979;1196;24129;-69
2021/10/11 20:48:03;;;;;;;44.80;25.20;;;;;;;8.08;70.35;98905.36;235279;1200;25291;-71
2021/10/11 20:53:23;;;;;;;42.10;25.80;;;;;;;8.14;70.58;98903.95;234720;1201;24071;-71
2021/10/11 20:58:26;;;;;;;37.20;21.60;;;;;;;8.23;70.46;98903.83;234598;1196;24038;-69
2021/10/11 21:03:29;;;;;;;36.10;20.60;;;;;;;8.23;70.14;98898.66;234602;1202;22924;-71
2021/10/11 21:08:35;;;;;;;38.70;22.40;;;;;;;8.22;70.24;98894.22;234771;1202;24171;-71
2021/10/11 21:13:40;;;;;;;38.70;23.90;;;;;;;8.29;70.34;98890.86;234989;1201;24059;-71
2021/10/11 21:18:44;;;;;;;35.60;22.20;;;;;;;8.36;70.38;98889.56;234583;1202;25064;-71
2021/10/11 21:23:46;;;;;;;31.90;19.70;;;;;;;8.42;70.38;98888.05;234753;1202;24033;-69
2021/10/11 21:28:49;;;;;;;31.10;18.10;;;;;;;8.42;70.25;98883.94;235093;1200;24026;-69
2021/10/11 21:33:51;;;;;;;29.90;18.20;;;;;;;8.44;70.25;98877.02;235119;1200;22424;-70
2021/10/11 21:38:56;;;;;;;32.10;20.00;;;;;;;8.49;70.48;98877.66;235127;1193;24143;-70
2021/10/11 21:43:58;;;;;;;34.50;20.40;;;;;;;8.52;70.61;98875.88;235353;1200;22455;-72
2021/10/11 21:49:01;;;;;;;27.90;18.80;;;;;;;8.55;70.68;98872.88;235151;1200;24060;-70
2021/10/11 21:54:04;;;;;;;31.60;19.10;;;;;;;8.56;70.70;98872.40;234777;1201;22488;-70
2021/10/11 21:59:09;;;;;;;26.50;17.20;;;;;;;8.58;70.81;98867.27;234600;1194;23997;-71
2021/10/11 22:04:11;;;;;;;28.60;18.50;;;;;;;8.60;70.92;98857.64;234585;1202;24722;-71
2021/10/11 22:09:14;;;;;;;32.60;19.30;;;;;;;8.63;71.00;98859.61;234522;1202;22509;-72
2021/10/11 22:14:17;;;;;;;26.00;17.30;;;;;;;8.64;70.98;98861.63;234477;1202;24137;-68
2021/10/11 22:19:23;;;;;;;24.10;16.30;;;;;;;8.67;71.02;98851.57;234721;1202;24562;-71
2021/10/11 22:24:26;;;;;;;24.80;16.90;;;;;;;8.73;71.05;98844.40;234788;1194;24047;-69
2021/10/11 22:29:29;;;;;;;30.10;18.10;;;;;;;8.75;71.19;98844.86;234992;1200;24079;-71
2021/10/11 22:34:31;;;;;;;27.90;16.20;;;;;;;8.72;71.32;98838.15;235094;1200;25162;-69
2021/10/11 22:39:34;;;;;;;25.00;15.60;;;;;;;8.68;71.43;98835.23;235375;1200;22431;-71
2021/10/11 22:44:37;;;;;;;28.80;17.20;;;;;;;8.64;71.50;98837.27;234885;1200;26133;-71
2021/10/11 22:49:42;;;;;;;24.90;14.80;;;;;;;8.59;72.00;98841.57;235039;1200;22501;-69
2021/10/11 22:54:59;;;;;;;31.30;15.90;;;;;;;8.56;72.20;98845.75;234558;1187;24043;-70
2021/10/11 23:00:06;;;;;;;22.70;14.70;;;;;;;8.55;72.37;98849.13;234665;1202;24923;-69
2021/10/11 23:05:13;;;;;;;24.60;15.90;;;;;;;8.56;72.74;98850.17;234754;1202;25272;-71
2021/10/11 23:10:35;;;;;;;20.80;13.20;;;;;;;8.56;72.84;98858.67;234783;1202;22462;-70
2021/10/11 23:15:41;;;;;;;23.60;14.30;;;;;;;8.55;73.02;98855.84;234579;1202;24903;-70
2021/10/11 23:20:45;;;;;;;21.80;13.00;;;;;;;8.53;73.19;98859.54;234576;1194;24081;-69
2021/10/11 23:25:47;;;;;;;20.00;11.50;;;;;;;8.45;73.28;98859.45;234501;1200;22441;-70
2021/10/11 23:30:50;;;;;;;18.70;12.10;;;;;;;8.29;73.39;98863.21;235152;1200;22457;-69
2021/10/11 23:35:53;;;;;;;18.00;11.90;;;;;;;8.19;73.69;98867.93;235071;1199;24197;-71
2021/10/11 23:40:56;;;;;;;16.90;12.10;;;;;;;8.10;73.80;98871.36;235004;1200;25001;-70
2021/10/11 23:45:58;;;;;;;15.90;11.30;;;;;;;8.04;73.91;98870.51;235097;1186;22636;-71
2021/10/11 23:51:08;;;;;;;17.60;12.90;;;;;;;7.94;74.21;98864.39;234771;1201;24247;-71
2021/10/11 23:56:24;;;;;;;16.50;11.90;;;;;;;7.84;74.52;98865.24;234493;1195;24061;-69
